Time,TemperatureF,DewpointF,PressureIn,WindDirection,WindDirectionDegrees,WindSpeedMPH,WindSpeedGustMPH,Humidity,HourlyPrecipIn,Conditions,Clouds,dailyrainin,SolarRadiationWatts/m^2,SoftwareType,DateUTC
2013-03-17 00:00:00,66.9,62.2,29.73,SSE,161,8.0,8.0,85,0.00,,,0.00,0,Wunderground v.1.15,2013-03-17 05:00:00,
2013-03-17 00:06:00,66.8,62.1,29.73,South,186,9.0,10.0,85,0.00,,,0.00,0,Wunderground v.1.15,2013-03-17 05:06:00,
2013-03-17 00:10:00,66.7,62.0,29.73,SSE,157,10.0,11.0,85,0.00,,,0.00,0,Wunderground v.1.15,2013-03-17 05:10:00,
2013-03-17 00:15:00,66.7,62.0,29.73,SE,145,9.0,11.0,85,0.00,,,0.00,0,Wunderground v.1.15,2013-03-17 05:15:00,
2013-03-17 00:20:00,66.6,62.3,29.73,SSE,149,9.0,9.0,86,0.00,,,0.00,0,Wunderground v.1.15,2013-03-17 05:20:00,
2013-03-17 00:25:00,66.5,62.2,29.73,South,169,8.0,9.0,86,0.00,,,0.00,0,Wunderground v.1.15,2013-03-17 05:25:00,
2013-03-17 00:30:00,66.3,62.0,29.72,SSE,150,8.0,8.0,86,0.00,,,0.00,0,Wunderground v.1.15,2013-03-17 05:30:00,
2013-03-17 00:35:00,66.2,61.9,29.72,SSE,152,8.0,8.0,86,0.00,,,0.00,0,Wunderground v.1.15,2013-03-17 05:35:00,
2013-03-17 00:40:00,66.2,61.9,29.72,SSE,161,8.0,9.0,86,0.00,,,0.00,0,Wunderground v.1.15,2013-03-17 05:40:00,
2013-03-17 00:45:00,66.1,62.1,29.72,SSE,165,8.0,9.0,87,0.00,,,0.00,0,Wunderground v.1.15,2013-03-17 05:45:00,
2013-03-17 00:50:00,66.0,62.0,29.72,South,191,8.0,13.0,87,0.00,,,0.00,0,Wunderground v.1.15,2013-03-17 05:50:00,
2013-03-17 00:55:00,65.9,61.9,29.72,SSE,165,8.0,13.0,87,0.00,,,0.00,0,Wunderground v.1.15,2013-03-17 05:55:00,
2013-03-17 01:00:00,65.9,61.9,29.72,SSE,157,9.0,11.0,87,0.00,,,0.00,0,Wunderground v.1.15,2013-03-17 06:00:00,
2013-03-17 01:10:00,65.7,61.7,29.72,South,169,8.0,12.0,87,0.00,,,0.00,0,Wunderground v.1.15,2013-03-17 06:10:00,
2013-03-17 01:15:00,65.6,61.6,29.71,SSE,155,7.0,12.0,87,0.00,,,0.00,0,Wunderground v.1.15,2013-03-17 06:15:00,
2013-03-17 01:20:00,65.5,61.9,29.71,South,173,7.0,7.0,88,0.00,,,0.00,0,Wunderground v.1.15,2013-03-17 06:20:00,
2013-03-17 01:25:00,65.4,61.8,29.71,SSE,159,7.0,9.0,88,0.00,,,0.00,0,Wunderground v.1.15,2013-03-17 06:25:00,
2013-03-17 01:30:00,65.4,61.8,29.71,South,169,7.0,12.0,88,0.00,,,0.00,0,Wunderground v.1.15,2013-03-17 06:30:00,
2013-03-17 01:35:00,65.4,61.8,29.71,South,174,7.0,12.0,88,0.00,,,0.00,0,Wunderground v.1.15,2013-03-17 06:35:00,
2013-03-17 01:40:00,65.4,61.8,29.71,South,169,7.0,7.0,88,0.00,,,0.00,0,Wunderground v.1.15,2013-03-17 06:40:00,
2013-03-17 01:45:00,65.3,61.7,29.71,South,172,6.0,7.0,88,0.00,,,0.00,0,Wunderground v.1.15,2013-03-17 06:45:00,
2013-03-17 01:51:00,65.3,61.7,29.71,SSE,157,6.0,10.0,88,0.00,,,0.00,0,Wunderground v.1.15,2013-03-17 06:51:00,
2013-03-17 02:00:00,65.4,62.1,29.71,SSE,167,8.0,8.0,89,0.00,,,0.00,0,Wunderground v.1.15,2013-03-17 07:00:00,
2013-03-17 02:10:00,65.4,62.1,29.71,South,176,6.0,6.0,89,0.00,,,0.00,0,Wunderground v.1.15,2013-03-17 07:10:00,
2013-03-17 02:15:00,65.4,62.1,29.71,South,180,6.0,6.0,89,0.00,,,0.00,0,Wunderground v.1.15,2013-03-17 07:15:00,
2013-03-17 02:20:00,65.4,62.1,29.71,South,176,6.0,7.0,89,0.00,,,0.00,0,Wunderground v.1.15,2013-03-17 07:20:00,
2013-03-17 02:25:00,65.4,62.1,29.71,South,178,7.0,7.0,89,0.00,,,0.00,0,Wunderground v.1.15,2013-03-17 07:25:00,
2013-03-17 02:30:00,65.4,62.1,29.70,SSE,165,7.0,7.0,89,0.00,,,0.00,0,Wunderground v.1.15,2013-03-17 07:30:00,
2013-03-17 02:35:00,65.5,62.2,29.70,SSE,165,7.0,7.0,89,0.00,,,0.00,0,Wunderground v.1.15,2013-03-17 07:35:00,
2013-03-17 02:40:00,65.5,62.2,29.70,SSE,167,7.0,7.0,89,0.00,,,0.00,0,Wunderground v.1.15,2013-03-17 07:40:00,
2013-03-17 02:45:00,65.5,62.2,29.69,South,173,8.0,8.0,89,0.00,,,0.00,0,Wunderground v.1.15,2013-03-17 07:45:00,
2013-03-17 02:50:00,65.6,62.3,29.69,SSE,156,7.0,7.0,89,0.00,,,0.00,0,Wunderground v.1.15,2013-03-17 07:50:00,
2013-03-17 02:55:00,65.6,62.3,29.69,SSE,165,7.0,7.0,89,0.00,,,0.00,0,Wunderground v.1.15,2013-03-17 07:55:00,
2013-03-17 03:00:00,65.6,62.3,29.69,SSE,168,8.0,9.0,89,0.00,,,0.00,0,Wunderground v.1.15,2013-03-17 08:00:00,
2013-03-17 03:06:00,65.6,62.3,29.69,South,172,9.0,10.0,89,0.00,,,0.00,0,Wunderground v.1.15,2013-03-17 08:06:00,
2013-03-17 03:10:00,65.6,62.3,29.69,SSE,166,9.0,9.0,89,0.00,,,0.00,0,Wunderground v.1.15,2013-03-17 08:10:00,
2013-03-17 03:15:00,65.6,62.3,29.69,SSE,164,8.0,9.0,89,0.00,,,0.00,0,Wunderground v.1.15,2013-03-17 08:15:00,
2013-03-17 03:20:00,65.6,62.3,29.69,South,172,7.0,7.0,89,0.00,,,0.00,0,Wunderground v.1.15,2013-03-17 08:20:00,
2013-03-17 03:25:00,65.6,62.3,29.69,South,170,7.0,7.0,89,0.00,,,0.00,0,Wunderground v.1.15,2013-03-17 08:25:00,
2013-03-17 03:30:00,65.6,62.3,29.68,SSE,167,7.0,7.0,89,0.00,,,0.00,0,Wunderground v.1.15,2013-03-17 08:30:00,
2013-03-17 03:35:00,65.6,62.3,29.68,South,173,8.0,9.0,89,0.00,,,0.00,0,Wunderground v.1.15,2013-03-17 08:35:00,
2013-03-17 03:40:00,65.6,62.3,29.68,South,178,7.0,7.0,89,0.00,,,0.00,0,Wunderground v.1.15,2013-03-17 08:40:00,
2013-03-17 03:50:00,65.5,62.2,29.67,SSE,163,6.0,7.0,89,0.00,,,0.00,0,Wunderground v.1.15,2013-03-17 08:50:00,
2013-03-17 04:00:00,65.5,62.2,29.67,SSE,166,6.0,6.0,89,0.00,,,0.00,0,Wunderground v.1.15,2013-03-17 09:00:00,
2013-03-17 04:06:00,65.5,62.2,29.67,SSE,165,6.0,6.0,89,0.00,,,0.00,0,Wunderground v.1.15,2013-03-17 09:06:00,
2013-03-17 04:10:00,65.5,62.2,29.67,SSE,161,6.0,6.0,89,0.00,,,0.00,0,Wunderground v.1.15,2013-03-17 09:10:00,
2013-03-17 04:15:00,65.4,62.1,29.67,South,172,7.0,7.0,89,0.00,,,0.00,0,Wunderground v.1.15,2013-03-17 09:15:00,
2013-03-17 04:20:00,65.4,62.1,29.67,South,173,6.0,6.0,89,0.00,,,0.00,0,Wunderground v.1.15,2013-03-17 09:20:00,
2013-03-17 04:25:00,65.4,62.1,29.67,South,180,6.0,6.0,89,0.00,,,0.00,0,Wunderground v.1.15,2013-03-17 09:25:00,
2013-03-17 04:30:00,65.4,62.1,29.67,South,174,6.0,6.0,89,0.00,,,0.00,0,Wunderground v.1.15,2013-03-17 09:30:00,
2013-03-17 04:35:00,65.4,62.1,29.67,SSE,159,5.0,6.0,89,0.00,,,0.00,0,Wunderground v.1.15,2013-03-17 09:35:00,
2013-03-17 04:40:00,65.4,62.1,29.67,SSE,159,5.0,5.0,89,0.00,,,0.00,0,Wunderground v.1.15,2013-03-17 09:40:00,
2013-03-17 04:45:00,65.4,62.1,29.66,SSE,168,6.0,6.0,89,0.00,,,0.00,0,Wunderground v.1.15,2013-03-17 09:45:00,
2013-03-17 04:50:00,65.4,62.4,29.66,SSE,163,5.0,5.0,90,0.00,,,0.00,0,Wunderground v.1.15,2013-03-17 09:50:00,
2013-03-17 04:55:00,65.4,62.4,29.66,South,174,5.0,6.0,90,0.00,,,0.00,0,Wunderground v.1.15,2013-03-17 09:55:00,
2013-03-17 05:00:00,65.4,62.4,29.66,South,172,6.0,6.0,90,0.00,,,0.00,0,Wunderground v.1.15,2013-03-17 10:00:00,
2013-03-17 05:06:00,65.4,62.4,29.66,South,169,6.0,6.0,90,0.00,,,0.00,0,Wunderground v.1.15,2013-03-17 10:06:00,
2013-03-17 05:10:00,65.4,62.4,29.66,South,172,5.0,5.0,90,0.00,,,0.00,0,Wunderground v.1.15,2013-03-17 10:10:00,
2013-03-17 05:15:00,65.3,62.3,29.66,South,172,4.0,5.0,90,0.00,,,0.00,0,Wunderground v.1.15,2013-03-17 10:15:00,
2013-03-17 05:20:00,65.4,62.4,29.66,South,170,4.0,4.0,90,0.00,,,0.00,0,Wunderground v.1.15,2013-03-17 10:20:00,
2013-03-17 05:25:00,65.3,62.3,29.66,South,169,3.0,5.0,90,0.00,,,0.00,0,Wunderground v.1.15,2013-03-17 10:25:00,
2013-03-17 05:30:00,65.4,62.4,29.66,SSE,165,2.0,2.0,90,0.00,,,0.00,0,Wunderground v.1.15,2013-03-17 10:30:00,
2013-03-17 05:35:00,65.4,62.4,29.66,SSE,164,2.0,2.0,90,0.00,,,0.00,0,Wunderground v.1.15,2013-03-17 10:35:00,
2013-03-17 05:45:00,65.3,62.3,29.66,SSE,164,2.0,5.0,90,0.00,,,0.00,0,Wunderground v.1.15,2013-03-17 10:45:00,
2013-03-17 05:50:00,65.4,62.4,29.66,SSE,163,2.0,4.0,90,0.00,,,0.00,0,Wunderground v.1.15,2013-03-17 10:50:00,
2013-03-17 05:55:00,65.4,62.4,29.66,SSE,162,2.0,4.0,90,0.00,,,0.00,0,Wunderground v.1.15,2013-03-17 10:55:00,
2013-03-17 06:00:00,65.4,62.4,29.66,SSE,157,3.0,7.0,90,0.00,,,0.00,0,Wunderground v.1.15,2013-03-17 11:00:00,
2013-03-17 06:06:00,65.4,62.4,29.66,SSE,149,4.0,7.0,90,0.00,,,0.00,0,Wunderground v.1.15,2013-03-17 11:06:00,
2013-03-17 06:10:00,65.4,62.4,29.66,SSE,148,3.0,3.0,90,0.00,,,0.00,0,Wunderground v.1.15,2013-03-17 11:10:00,
2013-03-17 06:15:00,65.4,62.4,29.66,SE,146,2.0,5.0,90,0.00,,,0.00,0,Wunderground v.1.15,2013-03-17 11:15:00,
2013-03-17 06:20:00,65.4,62.4,29.66,SE,146,3.0,3.0,90,0.00,,,0.00,0,Wunderground v.1.15,2013-03-17 11:20:00,
2013-03-17 06:30:00,65.5,62.5,29.66,SSE,148,2.0,7.0,90,0.00,,,0.00,0,Wunderground v.1.15,2013-03-17 11:30:00,
2013-03-17 06:35:00,65.5,62.5,29.66,SE,146,2.0,7.0,90,0.00,,,0.00,0,Wunderground v.1.15,2013-03-17 11:35:00,
2013-03-17 06:40:00,65.5,62.5,29.66,SSE,148,3.0,5.0,90,0.00,,,0.00,0,Wunderground v.1.15,2013-03-17 11:40:00,
2013-03-17 06:50:00,65.5,62.5,29.66,SSE,150,3.0,6.0,90,0.00,,,0.00,0,Wunderground v.1.15,2013-03-17 11:50:00,
2013-03-17 06:55:00,65.5,62.5,29.66,SSE,168,4.0,6.0,90,0.00,,,0.00,0,Wunderground v.1.15,2013-03-17 11:55:00,
2013-03-17 07:00:00,65.5,62.5,29.67,SSE,165,6.0,6.0,90,0.00,,,0.00,0,Wunderground v.1.15,2013-03-17 12:00:00,
2013-03-17 07:06:00,65.6,62.6,29.67,SSE,163,5.0,6.0,90,0.00,,,0.00,0,Wunderground v.1.15,2013-03-17 12:06:00,
2013-03-17 07:15:00,65.6,62.6,29.68,SSE,167,3.0,5.0,90,0.00,,,0.00,0,Wunderground v.1.15,2013-03-17 12:15:00,
2013-03-17 07:20:00,65.6,62.3,29.68,SSE,168,4.0,6.0,89,0.00,,,0.00,0,Wunderground v.1.15,2013-03-17 12:20:00,
2013-03-17 07:25:00,65.6,62.3,29.68,South,169,5.0,6.0,89,0.00,,,0.00,0,Wunderground v.1.15,2013-03-17 12:25:00,
2013-03-17 07:30:00,65.6,62.3,29.68,South,169,5.0,5.0,89,0.00,,,0.00,0,Wunderground v.1.15,2013-03-17 12:30:00,
2013-03-17 07:35:00,65.6,62.3,29.68,South,169,4.0,7.0,89,0.00,,,0.00,0,Wunderground v.1.15,2013-03-17 12:35:00,
2013-03-17 07:40:00,65.6,62.3,29.68,South,170,4.0,4.0,89,0.00,,,0.00,0,Wunderground v.1.15,2013-03-17 12:40:00,
2013-03-17 07:45:00,65.6,62.3,29.68,South,169,3.0,4.0,89,0.00,,,0.00,0,Wunderground v.1.15,2013-03-17 12:45:00,
2013-03-17 07:50:00,65.6,62.3,29.68,South,171,3.0,5.0,89,0.00,,,0.00,0,Wunderground v.1.15,2013-03-17 12:50:00,
2013-03-17 08:00:00,65.5,62.2,29.68,South,170,4.0,5.0,89,0.00,,,0.00,11,Wunderground v.1.15,2013-03-17 13:00:00,
2013-03-17 08:06:00,65.5,62.2,29.68,South,171,3.0,5.0,89,0.00,,,0.00,12,Wunderground v.1.15,2013-03-17 13:06:00,
2013-03-17 08:10:00,65.6,62.3,29.68,South,169,2.0,2.0,89,0.00,,,0.00,19,Wunderground v.1.15,2013-03-17 13:10:00,
2013-03-17 08:15:00,65.6,62.3,29.69,South,169,1.0,3.0,89,0.00,,,0.00,26,Wunderground v.1.15,2013-03-17 13:15:00,
2013-03-17 08:20:00,65.6,62.6,29.69,South,171,2.0,2.0,90,0.00,,,0.00,32,Wunderground v.1.15,2013-03-17 13:20:00,
2013-03-17 08:30:00,65.7,62.7,29.69,South,170,1.0,1.0,90,0.00,,,0.00,42,Wunderground v.1.15,2013-03-17 13:30:00,
2013-03-17 08:35:00,65.8,62.5,29.69,South,171,1.0,1.0,89,0.00,,,0.00,49,Wunderground v.1.15,2013-03-17 13:35:00,
2013-03-17 08:40:00,65.8,62.5,29.69,South,169,2.0,5.0,89,0.00,,,0.00,69,Wunderground v.1.15,2013-03-17 13:40:00,
2013-03-17 08:45:00,65.9,62.6,29.70,South,169,2.0,7.0,89,0.00,,,0.00,70,Wunderground v.1.15,2013-03-17 13:45:00,
2013-03-17 08:50:00,66.0,62.7,29.70,South,170,3.0,5.0,89,0.00,,,0.00,74,Wunderground v.1.15,2013-03-17 13:50:00,
2013-03-17 09:00:00,66.3,63.0,29.70,South,169,4.0,5.0,89,0.00,,,0.00,100,Wunderground v.1.15,2013-03-17 14:00:00,
2013-03-17 09:10:00,66.6,63.3,29.70,South,172,3.0,5.0,89,0.00,,,0.00,125,Wunderground v.1.15,2013-03-17 14:10:00,
2013-03-17 09:15:00,66.8,63.1,29.70,SSE,168,4.0,5.0,88,0.00,,,0.00,114,Wunderground v.1.15,2013-03-17 14:15:00,
2013-03-17 09:20:00,67.1,63.4,29.70,South,186,3.0,7.0,88,0.00,,,0.00,128,Wunderground v.1.15,2013-03-17 14:20:00,
2013-03-17 09:30:00,67.5,63.2,29.70,South,171,8.0,8.0,86,0.00,,,0.00,100,Wunderground v.1.15,2013-03-17 14:30:00,
2013-03-17 09:35:00,67.7,63.4,29.70,South,169,6.0,8.0,86,0.00,,,0.00,111,Wunderground v.1.15,2013-03-17 14:35:00,
2013-03-17 09:40:00,67.9,63.2,29.70,SSE,165,6.0,7.0,85,0.00,,,0.00,139,Wunderground v.1.15,2013-03-17 14:40:00,
2013-03-17 09:45:00,68.0,63.3,29.70,South,186,7.0,7.0,85,0.00,,,0.00,137,Wunderground v.1.15,2013-03-17 14:45:00,
2013-03-17 09:50:00,68.3,63.3,29.70,SSW,192,7.0,10.0,84,0.00,,,0.00,135,Wunderground v.1.15,2013-03-17 14:50:00,
2013-03-17 09:55:00,68.5,63.5,29.70,South,183,8.0,10.0,84,0.00,,,0.00,142,Wunderground v.1.15,2013-03-17 14:55:00,
2013-03-17 10:00:00,68.5,63.1,29.70,South,175,8.0,8.0,83,0.00,,,0.00,146,Wunderground v.1.15,2013-03-17 15:00:00,
2013-03-17 10:06:00,68.6,63.2,29.70,South,171,7.0,8.0,83,0.00,,,0.00,195,Wunderground v.1.15,2013-03-17 15:06:00,
2013-03-17 10:10:00,68.7,63.3,29.70,South,184,8.0,8.0,83,0.00,,,0.00,144,Wunderground v.1.15,2013-03-17 15:10:00,
2013-03-17 10:20:00,69.1,63.0,29.70,South,174,9.0,11.0,81,0.00,,,0.00,174,Wunderground v.1.15,2013-03-17 15:20:00,
2013-03-17 10:25:00,69.2,63.5,29.70,South,188,9.0,12.0,82,0.00,,,0.00,179,Wunderground v.1.15,2013-03-17 15:25:00,
2013-03-17 10:30:00,69.4,63.3,29.71,South,186,10.0,11.0,81,0.00,,,0.00,190,Wunderground v.1.15,2013-03-17 15:30:00,
2013-03-17 10:35:00,69.5,63.1,29.71,SSW,200,11.0,14.0,80,0.00,,,0.00,156,Wunderground v.1.15,2013-03-17 15:35:00,
2013-03-17 10:40:00,69.7,63.3,29.71,South,188,12.0,12.0,80,0.00,,,0.00,183,Wunderground v.1.15,2013-03-17 15:40:00,
2013-03-17 10:45:00,69.7,63.3,29.71,South,190,12.0,19.0,80,0.00,,,0.00,169,Wunderground v.1.15,2013-03-17 15:45:00,
2013-03-17 10:50:00,70.0,63.2,29.71,SSW,192,12.0,12.0,79,0.00,,,0.00,279,Wunderground v.1.15,2013-03-17 15:50:00,
2013-03-17 10:55:00,70.6,63.4,29.71,SSW,210,12.0,12.0,78,0.00,,,0.00,285,Wunderground v.1.15,2013-03-17 15:55:00,
2013-03-17 11:00:00,70.7,63.5,29.71,South,187,12.0,12.0,78,0.00,,,0.00,227,Wunderground v.1.15,2013-03-17 16:00:00,
2013-03-17 11:10:00,71.0,63.4,29.71,SSW,200,11.0,11.0,77,0.00,,,0.00,230,Wunderground v.1.15,2013-03-17 16:10:00,
2013-03-17 11:15:00,71.2,63.6,29.71,South,186,9.0,12.0,77,0.00,,,0.00,250,Wunderground v.1.15,2013-03-17 16:15:00,
2013-03-17 11:20:00,70.9,63.3,29.71,SSE,162,8.0,8.0,77,0.00,,,0.00,343,Wunderground v.1.15,2013-03-17 16:20:00,
2013-03-17 11:25:00,71.1,63.9,29.71,South,169,7.0,8.0,78,0.00,,,0.00,425,Wunderground v.1.15,2013-03-17 16:25:00,
2013-03-17 11:30:00,71.3,63.0,29.70,South,169,7.0,7.0,75,0.00,,,0.00,320,Wunderground v.1.15,2013-03-17 16:30:00,
2013-03-17 11:35:00,71.2,62.9,29.70,SE,146,7.0,7.0,75,0.00,,,0.00,306,Wunderground v.1.15,2013-03-17 16:35:00,
2013-03-17 11:40:00,71.3,63.0,29.70,SSE,148,4.0,4.0,75,0.00,,,0.00,257,Wunderground v.1.15,2013-03-17 16:40:00,
2013-03-17 11:45:00,71.4,63.1,29.71,SSE,165,4.0,5.0,75,0.00,,,0.00,290,Wunderground v.1.15,2013-03-17 16:45:00,
2013-03-17 11:50:00,72.2,64.2,29.71,South,178,5.0,6.0,76,0.00,,,0.00,445,Wunderground v.1.15,2013-03-17 16:50:00,
2013-03-17 11:55:00,73.3,63.7,29.71,SSE,161,6.0,6.0,72,0.00,,,0.00,510,Wunderground v.1.15,2013-03-17 16:55:00,
2013-03-17 12:00:00,73.3,64.1,29.70,South,182,4.0,6.0,73,0.00,,,0.00,369,Wunderground v.1.15,2013-03-17 17:00:00,
2013-03-17 12:10:00,73.1,63.9,29.70,South,187,4.0,4.0,73,0.00,,,0.00,329,Wunderground v.1.15,2013-03-17 17:10:00,
2013-03-17 12:15:00,73.8,63.8,29.70,SW,215,3.0,7.0,71,0.00,,,0.00,446,Wunderground v.1.15,2013-03-17 17:15:00,
2013-03-17 12:20:00,74.0,63.6,29.70,SSW,196,5.0,5.0,70,0.00,,,0.00,439,Wunderground v.1.15,2013-03-17 17:20:00,
2013-03-17 12:30:00,74.4,63.1,29.70,SSW,202,4.0,4.0,68,0.00,,,0.00,388,Wunderground v.1.15,2013-03-17 17:30:00,
2013-03-17 12:35:00,73.8,63.4,29.70,SSW,203,2.0,4.0,70,0.00,,,0.00,508,Wunderground v.1.15,2013-03-17 17:35:00,
2013-03-17 12:40:00,73.3,63.3,29.70,SSW,202,0.0,0.0,71,0.00,,,0.00,330,Wunderground v.1.15,2013-03-17 17:40:00,
2013-03-17 12:51:00,74.2,63.8,29.70,SSW,202,2.0,2.0,70,0.00,,,0.00,805,Wunderground v.1.15,2013-03-17 17:51:00,
2013-03-17 12:55:00,75.3,64.0,29.70,SSW,198,1.0,2.0,68,0.00,,,0.00,942,Wunderground v.1.15,2013-03-17 17:55:00,
2013-03-17 13:10:00,77.6,64.0,29.69,SSW,196,3.0,6.0,63,0.00,,,0.00,928,Wunderground v.1.15,2013-03-17 18:10:00,
2013-03-17 13:15:00,77.3,64.6,29.68,SSW,194,3.0,6.0,65,0.00,,,0.00,904,Wunderground v.1.15,2013-03-17 18:15:00,
2013-03-17 13:20:00,77.5,63.9,29.68,SSW,198,3.0,6.0,63,0.00,,,0.00,301,Wunderground v.1.15,2013-03-17 18:20:00,
2013-03-17 13:25:00,77.9,64.7,29.68,SSW,199,4.0,6.0,64,0.00,,,0.00,875,Wunderground v.1.15,2013-03-17 18:25:00,
2013-03-17 13:30:00,78.9,64.8,29.66,SSW,196,6.0,8.0,62,0.00,,,0.00,895,Wunderground v.1.15,2013-03-17 18:30:00,
2013-03-17 13:35:00,80.3,65.6,29.66,South,186,7.0,10.0,61,0.00,,,0.00,874,Wunderground v.1.15,2013-03-17 18:35:00,
2013-03-17 13:40:00,80.5,65.3,29.66,SW,228,7.0,7.0,60,0.00,,,0.00,874,Wunderground v.1.15,2013-03-17 18:40:00,
2013-03-17 13:45:00,80.4,64.3,29.65,SW,223,6.0,7.0,58,0.00,,,0.00,863,Wunderground v.1.15,2013-03-17 18:45:00,
2013-03-17 13:50:00,80.4,64.8,29.65,South,180,7.0,7.0,59,0.00,,,0.00,854,Wunderground v.1.15,2013-03-17 18:50:00,
2013-03-17 13:55:00,80.1,64.5,29.65,SSW,199,7.0,10.0,59,0.00,,,0.00,856,Wunderground v.1.15,2013-03-17 18:55:00,
2013-03-17 14:10:00,80.9,65.2,29.65,SSW,192,4.0,6.0,59,0.00,,,0.00,837,Wunderground v.1.15,2013-03-17 19:10:00,
2013-03-17 14:15:00,81.1,64.9,29.63,South,183,4.0,6.0,58,0.00,,,0.00,828,Wunderground v.1.15,2013-03-17 19:15:00,
2013-03-17 14:20:00,81.4,64.7,29.63,SSW,202,5.0,7.0,57,0.00,,,0.00,830,Wunderground v.1.15,2013-03-17 19:20:00,
2013-03-17 14:30:00,81.8,65.1,29.62,SSW,207,5.0,5.0,57,0.00,,,0.00,802,Wunderground v.1.15,2013-03-17 19:30:00,
2013-03-17 14:35:00,81.7,64.5,29.62,South,186,3.0,5.0,56,0.00,,,0.00,823,Wunderground v.1.15,2013-03-17 19:35:00,
2013-03-17 14:40:00,82.4,64.6,29.62,SSE,168,4.0,7.0,55,0.00,,,0.00,817,Wunderground v.1.15,2013-03-17 19:40:00,
2013-03-17 14:45:00,82.7,65.9,29.61,South,172,6.0,7.0,57,0.00,,,0.00,807,Wunderground v.1.15,2013-03-17 19:45:00,
2013-03-17 14:50:00,82.8,65.0,29.61,SE,134,5.0,5.0,55,0.00,,,0.00,803,Wunderground v.1.15,2013-03-17 19:50:00,
2013-03-17 14:55:00,81.7,64.5,29.61,SE,134,2.0,5.0,56,0.00,,,0.00,793,Wunderground v.1.15,2013-03-17 19:55:00,
2013-03-17 15:00:00,82.7,65.4,29.60,SW,228,2.0,6.0,56,0.00,,,0.00,791,Wunderground v.1.15,2013-03-17 20:00:00,
2013-03-17 15:10:00,83.2,65.4,29.60,South,172,4.0,11.0,55,0.00,,,0.00,770,Wunderground v.1.15,2013-03-17 20:10:00,
2013-03-17 15:15:00,82.8,64.5,29.59,SSE,155,4.0,11.0,54,0.00,,,0.00,770,Wunderground v.1.15,2013-03-17 20:15:00,
2013-03-17 15:20:00,82.7,64.4,29.59,SSE,157,2.0,5.0,54,0.00,,,0.00,759,Wunderground v.1.15,2013-03-17 20:20:00,
2013-03-17 15:25:00,83.3,66.5,29.59,SSW,196,3.0,5.0,57,0.00,,,0.00,744,Wunderground v.1.15,2013-03-17 20:25:00,
2013-03-17 15:30:00,83.6,65.2,29.58,SSW,195,4.0,4.0,54,0.00,,,0.00,749,Wunderground v.1.15,2013-03-17 20:30:00,
2013-03-17 15:35:00,85.5,64.7,29.58,SW,223,6.0,6.0,50,0.00,,,0.00,740,Wunderground v.1.15,2013-03-17 20:35:00,
2013-03-17 15:40:00,85.4,64.6,29.58,South,190,7.0,7.0,50,0.00,,,0.00,735,Wunderground v.1.15,2013-03-17 20:40:00,
2013-03-17 15:45:00,85.9,63.9,29.57,SW,236,7.0,7.0,48,0.00,,,0.00,728,Wunderground v.1.15,2013-03-17 20:45:00,
2013-03-17 15:50:00,85.8,64.4,29.57,SW,232,5.0,5.0,49,0.00,,,0.00,708,Wunderground v.1.15,2013-03-17 20:50:00,
2013-03-17 16:00:00,85.1,63.8,29.57,SSE,163,6.0,6.0,49,0.00,,,0.00,721,Wunderground v.1.15,2013-03-17 21:00:00,
2013-03-17 16:06:00,83.7,63.1,29.57,SSE,162,3.0,6.0,50,0.00,,,0.00,645,Wunderground v.1.15,2013-03-17 21:06:00,
2013-03-17 16:10:00,83.9,62.7,29.57,SSE,167,1.0,1.0,49,0.00,,,0.00,274,Wunderground v.1.15,2013-03-17 21:10:00,
2013-03-17 16:15:00,84.9,63.6,29.56,South,175,4.0,4.0,49,0.00,,,0.00,617,Wunderground v.1.15,2013-03-17 21:15:00,
2013-03-17 16:20:00,85.9,63.3,29.56,SSW,200,5.0,9.0,47,0.00,,,0.00,327,Wunderground v.1.15,2013-03-17 21:20:00,
2013-03-17 16:30:00,86.1,64.1,29.56,SSW,207,4.0,4.0,48,0.00,,,0.00,417,Wunderground v.1.15,2013-03-17 21:30:00,
2013-03-17 16:35:00,86.8,64.2,29.56,West,267,3.0,4.0,47,0.00,,,0.00,624,Wunderground v.1.15,2013-03-17 21:35:00,
2013-03-17 16:40:00,86.2,63.6,29.56,SW,219,4.0,5.0,47,0.00,,,0.00,257,Wunderground v.1.15,2013-03-17 21:40:00,
2013-03-17 16:50:00,85.8,62.6,29.55,SSW,209,4.0,4.0,46,0.00,,,0.00,517,Wunderground v.1.15,2013-03-17 21:50:00,
2013-03-17 16:55:00,85.7,63.1,29.55,SSW,203,4.0,4.0,47,0.00,,,0.00,522,Wunderground v.1.15,2013-03-17 21:55:00,
2013-03-17 17:06:00,86.5,62.6,29.55,SSW,207,4.0,5.0,45,0.00,,,0.00,487,Wunderground v.1.15,2013-03-17 22:06:00,
2013-03-17 17:10:00,86.6,62.1,29.55,SSW,207,4.0,4.0,44,0.00,,,0.00,468,Wunderground v.1.15,2013-03-17 22:10:00,
2013-03-17 17:15:00,85.8,62.6,29.55,SSW,206,2.0,4.0,46,0.00,,,0.00,457,Wunderground v.1.15,2013-03-17 22:15:00,
2013-03-17 17:20:00,85.8,62.6,29.55,SSW,205,2.0,2.0,46,0.00,,,0.00,445,Wunderground v.1.15,2013-03-17 22:20:00,
2013-03-17 17:30:00,86.6,62.7,29.54,South,173,5.0,6.0,45,0.00,,,0.00,406,Wunderground v.1.15,2013-03-17 22:30:00,
2013-03-17 17:35:00,85.7,61.9,29.54,South,172,5.0,6.0,45,0.00,,,0.00,376,Wunderground v.1.15,2013-03-17 22:35:00,
2013-03-17 17:40:00,85.6,61.8,29.54,South,173,4.0,6.0,45,0.00,,,0.00,362,Wunderground v.1.15,2013-03-17 22:40:00,
2013-03-17 17:45:00,85.5,62.4,29.55,South,173,3.0,6.0,46,0.00,,,0.00,348,Wunderground v.1.15,2013-03-17 22:45:00,
2013-03-17 17:50:00,86.0,62.8,29.55,South,173,2.0,2.0,46,0.00,,,0.00,325,Wunderground v.1.15,2013-03-17 22:50:00,
2013-03-17 17:55:00,86.2,62.4,29.55,South,173,1.0,4.0,45,0.00,,,0.00,308,Wunderground v.1.15,2013-03-17 22:55:00,
2013-03-17 18:00:00,85.9,62.1,29.54,SSW,198,2.0,5.0,45,0.00,,,0.00,294,Wunderground v.1.15,2013-03-17 23:00:00,
2013-03-17 18:10:00,86.2,62.4,29.54,SSW,208,5.0,5.0,45,0.00,,,0.00,258,Wunderground v.1.15,2013-03-17 23:10:00,
2013-03-17 18:15:00,86.0,61.5,29.54,SSW,207,2.0,5.0,44,0.00,,,0.00,239,Wunderground v.1.15,2013-03-17 23:15:00,
2013-03-17 18:20:00,85.6,61.2,29.54,SSW,208,1.0,1.0,44,0.00,,,0.00,220,Wunderground v.1.15,2013-03-17 23:20:00,
2013-03-17 18:25:00,85.1,61.4,29.54,SSW,208,0.0,1.0,45,0.00,,,0.00,207,Wunderground v.1.15,2013-03-17 23:25:00,
2013-03-17 18:30:00,85.2,62.1,29.54,SSW,207,1.0,2.0,46,0.00,,,0.00,188,Wunderground v.1.15,2013-03-17 23:30:00,
2013-03-17 18:35:00,85.1,61.4,29.54,SSW,208,2.0,2.0,45,0.00,,,0.00,111,Wunderground v.1.15,2013-03-17 23:35:00,
2013-03-17 18:45:00,84.6,61.5,29.54,SSW,207,2.0,2.0,46,0.00,,,0.00,86,Wunderground v.1.15,2013-03-17 23:45:00,
2013-03-17 18:50:00,84.6,61.5,29.54,SSW,208,2.0,2.0,46,0.00,,,0.00,60,Wunderground v.1.15,2013-03-17 23:50:00,
2013-03-17 18:55:00,84.5,61.4,29.54,SSW,208,2.0,3.0,46,0.00,,,0.00,53,Wunderground v.1.15,2013-03-17 23:55:00,
2013-03-17 19:00:00,84.3,61.3,29.55,SSW,207,2.0,2.0,46,0.00,,,0.00,44,Wunderground v.1.15,2013-03-18 00:00:00,
2013-03-17 19:10:00,84.1,61.1,29.55,SSW,208,3.0,6.0,46,0.00,,,0.00,37,Wunderground v.1.15,2013-03-18 00:10:00,
2013-03-17 19:15:00,84.0,61.6,29.54,SSW,203,3.0,6.0,47,0.00,,,0.00,30,Wunderground v.1.15,2013-03-18 00:15:00,
2013-03-17 19:20:00,83.9,61.5,29.54,SSW,194,3.0,3.0,47,0.00,,,0.00,25,Wunderground v.1.15,2013-03-18 00:20:00,
2013-03-17 19:25:00,83.8,60.8,29.54,South,184,4.0,4.0,46,0.00,,,0.00,19,Wunderground v.1.15,2013-03-18 00:25:00,
2013-03-17 19:30:00,83.6,61.2,29.53,South,184,3.0,3.0,47,0.00,,,0.00,18,Wunderground v.1.15,2013-03-18 00:30:00,
2013-03-17 19:35:00,83.5,61.1,29.53,South,184,2.0,3.0,47,0.00,,,0.00,11,Wunderground v.1.15,2013-03-18 00:35:00,
2013-03-17 19:40:00,83.3,61.0,29.53,South,184,2.0,2.0,47,0.00,,,0.00,7,Wunderground v.1.15,2013-03-18 00:40:00,
2013-03-17 19:45:00,83.1,60.8,29.53,South,185,2.0,2.0,47,0.00,,,0.00,0,Wunderground v.1.15,2013-03-18 00:45:00,
2013-03-17 19:50:00,82.8,61.1,29.53,South,185,2.0,2.0,48,0.00,,,0.00,0,Wunderground v.1.15,2013-03-18 00:50:00,
2013-03-17 19:55:00,82.5,60.8,29.53,South,185,1.0,2.0,48,0.00,,,0.00,0,Wunderground v.1.15,2013-03-18 00:55:00,
2013-03-17 20:06:00,81.8,60.8,29.54,South,184,1.0,1.0,49,0.00,,,0.00,0,Wunderground v.1.15,2013-03-18 01:06:00,
2013-03-17 20:10:00,81.4,61.0,29.54,South,185,1.0,1.0,50,0.00,,,0.00,0,Wunderground v.1.15,2013-03-18 01:10:00,
2013-03-17 20:15:00,81.1,60.7,29.55,South,185,1.0,1.0,50,0.00,,,0.00,0,Wunderground v.1.15,2013-03-18 01:15:00,
2013-03-17 20:20:00,80.7,60.3,29.55,South,184,1.0,1.0,50,0.00,,,0.00,0,Wunderground v.1.15,2013-03-18 01:20:00,
2013-03-17 20:25:00,80.2,59.9,29.55,South,185,1.0,1.0,50,0.00,,,0.00,0,Wunderground v.1.15,2013-03-18 01:25:00,
2013-03-17 20:30:00,79.8,60.1,29.55,South,185,1.0,2.0,51,0.00,,,0.00,0,Wunderground v.1.15,2013-03-18 01:30:00,
2013-03-17 20:35:00,79.3,60.1,29.55,South,185,1.0,2.0,52,0.00,,,0.00,0,Wunderground v.1.15,2013-03-18 01:35:00,
2013-03-17 20:40:00,78.7,60.1,29.55,South,185,2.0,3.0,53,0.00,,,0.00,0,Wunderground v.1.15,2013-03-18 01:40:00,
2013-03-17 20:50:00,77.9,59.9,29.56,South,184,2.0,2.0,54,0.00,,,0.00,0,Wunderground v.1.15,2013-03-18 01:50:00,
2013-03-17 21:00:00,77.5,62.5,29.57,ESE,122,5.0,9.0,60,0.00,,,0.00,0,Wunderground v.1.15,2013-03-18 02:00:00,
2013-03-17 21:10:00,77.1,65.3,29.57,SE,129,8.0,9.0,67,0.00,,,0.00,0,Wunderground v.1.15,2013-03-18 02:10:00,
2013-03-17 21:15:00,76.9,66.4,29.58,ESE,104,9.0,9.0,70,0.00,,,0.00,0,Wunderground v.1.15,2013-03-18 02:15:00,
2013-03-17 21:20:00,76.5,66.4,29.58,SE,128,11.0,11.0,71,0.00,,,0.00,0,Wunderground v.1.15,2013-03-18 02:20:00,
2013-03-17 21:25:00,76.2,66.5,29.58,SE,144,10.0,11.0,72,0.00,,,0.00,0,Wunderground v.1.15,2013-03-18 02:25:00,
2013-03-17 21:30:00,75.9,66.6,29.58,ESE,120,8.0,8.0,73,0.00,,,0.00,0,Wunderground v.1.15,2013-03-18 02:30:00,
2013-03-17 21:35:00,75.6,66.7,29.58,SE,129,8.0,10.0,74,0.00,,,0.00,0,Wunderground v.1.15,2013-03-18 02:35:00,
2013-03-17 21:45:00,75.1,66.6,29.60,SE,126,8.0,12.0,75,0.00,,,0.00,0,Wunderground v.1.15,2013-03-18 02:45:00,
2013-03-17 21:50:00,74.8,66.3,29.60,ESE,123,6.0,10.0,75,0.00,,,0.00,0,Wunderground v.1.15,2013-03-18 02:50:00,
2013-03-17 21:55:00,74.5,66.4,29.60,ESE,119,7.0,10.0,76,0.00,,,0.00,0,Wunderground v.1.15,2013-03-18 02:55:00,
2013-03-17 22:00:00,74.2,66.5,29.60,ESE,105,8.0,8.0,77,0.00,,,0.00,0,Wunderground v.1.15,2013-03-18 03:00:00,
2013-03-17 22:10:00,73.7,66.4,29.60,ESE,122,6.0,6.0,78,0.00,,,0.00,0,Wunderground v.1.15,2013-03-18 03:10:00,
2013-03-17 22:15:00,73.5,66.2,29.60,SE,134,5.0,9.0,78,0.00,,,0.00,0,Wunderground v.1.15,2013-03-18 03:15:00,
2013-03-17 22:20:00,73.1,66.2,29.60,ESE,118,6.0,6.0,79,0.00,,,0.00,0,Wunderground v.1.15,2013-03-18 03:20:00,
2013-03-17 22:25:00,72.9,66.4,29.60,ESE,112,7.0,7.0,80,0.00,,,0.00,0,Wunderground v.1.15,2013-03-18 03:25:00,
2013-03-17 22:35:00,72.4,66.2,29.61,SE,128,6.0,6.0,81,0.00,,,0.00,0,Wunderground v.1.15,2013-03-18 03:35:00,
2013-03-17 22:40:00,72.2,66.0,29.61,ESE,121,4.0,8.0,81,0.00,,,0.00,0,Wunderground v.1.15,2013-03-18 03:40:00,
2013-03-17 22:45:00,72.0,65.8,29.62,ESE,121,4.0,8.0,81,0.00,,,0.00,0,Wunderground v.1.15,2013-03-18 03:45:00,
2013-03-17 22:50:00,71.8,66.0,29.62,ESE,117,4.0,4.0,82,0.00,,,0.00,0,Wunderground v.1.15,2013-03-18 03:50:00,
2013-03-17 23:00:00,71.3,65.9,29.62,ESE,113,3.0,6.0,83,0.00,,,0.00,0,Wunderground v.1.15,2013-03-18 04:00:00,
2013-03-17 23:10:00,71.0,65.6,29.62,SE,124,4.0,4.0,83,0.00,,,0.00,0,Wunderground v.1.15,2013-03-18 04:10:00,
2013-03-17 23:15:00,70.8,65.7,29.63,ESE,123,3.0,4.0,84,0.00,,,0.00,0,Wunderground v.1.15,2013-03-18 04:15:00,
2013-03-17 23:20:00,70.7,65.6,29.63,ESE,120,3.0,4.0,84,0.00,,,0.00,0,Wunderground v.1.15,2013-03-18 04:20:00,
2013-03-17 23:25:00,70.5,65.4,29.63,ESE,112,3.0,4.0,84,0.00,,,0.00,0,Wunderground v.1.15,2013-03-18 04:25:00,
2013-03-17 23:36:00,70.1,65.4,29.63,ESE,121,2.0,3.0,85,0.00,,,0.00,0,Wunderground v.1.15,2013-03-18 04:36:00,
2013-03-17 23:40:00,69.9,65.2,29.63,ESE,121,1.0,1.0,85,0.00,,,0.00,0,Wunderground v.1.15,2013-03-18 04:40:00,
2013-03-17 23:45:00,69.7,65.0,29.63,ESE,109,2.0,3.0,85,0.00,,,0.00,0,Wunderground v.1.15,2013-03-18 04:45:00,
2013-03-17 23:51:00,69.5,65.1,29.63,ESE,110,3.0,6.0,86,0.00,,,0.00,0,Wunderground v.1.15,2013-03-18 04:51:00,
2013-03-17 23:55:00,69.3,65.3,29.63,ESE,115,3.0,6.0,87,0.00,,,0.00,0,Wunderground v.1.15,2013-03-18 04:55:00,